الصفحة الرئيسية
METAR-TAF:

METAR-TAF

مطار :

Wink, تكساس, الولايات المتحدة

دائرة عرض: 31-46-47N, خط طول: 103-12-05W, ارتفاع: 860 متر

مراقبة الطقس الحالي

تاريخ ووقت الإصدار 14 دقيقة قبل الساعة 09:53UTC
رياح هادئة
درجة الحرارة 6°درجة مئوية
الرطوبة 49%
ضغط 1015 hPa
الرؤية: 16.1 كم
سماء صافية

METAR: KINK 230953Z AUTO 00000KT 10SM CLR 06/M04 A2998 RMK AO2 SLP127 T00561039

زمن: 05:07 (10:07 UTC)

توقعات

تاريخ ووقت الإصدار 4ساعات و 47 دقيقة قبل الساعة 05:20UTC
التوقعات صالحة من23 الساعة 06 UTC إلى 24 الساعة 06 UTC
ريح 6 عقدة من الجنوب/الجنوب الشرقي
الرؤية: 10 كم
سماء صافية

TAF: KINK 230520Z 2306/2406 16006KT P6SM SKC

أرصاد الطقس والتوقعات من أكثر من 4000 مطار (تقارير الطقس للمطار METAR والتنبؤ بالطقس بالمطارTAF).

المحطات المتاحة هي النقط الصفراء والحمراء على الخريطة.

حرك المؤشر فوق النقطة لمعرفة اسم المحطة.

ثم انقر لمعرفة أرصاد وتوقعات الطقس.

لتغيير الخارطة: اضغط على الأزرار الخضراء مع رمز الصليب الأسود للتكبير. على الزر الأخضر مع شرطة للتصغير، أو على الأسهم الخضراء للخرائط المجاورة.


METAR-TAF: